sensor_id;sensor_type;location;lat;lon;timestamp;temperature;humidity
25192;DHT22;13143;50.924;5.320;2024-03-02T00:02:15;10.60;99.90
25192;DHT22;13143;50.924;5.320;2024-03-02T00:04:44;10.60;99.90
25192;DHT22;13143;50.924;5.320;2024-03-02T00:07:14;10.60;99.90
25192;DHT22;13143;50.924;5.320;2024-03-02T00:09:41;10.60;99.90
25192;DHT22;13143;50.924;5.320;2024-03-02T00:12:12;10.60;99.90
25192;DHT22;13143;50.924;5.320;2024-03-02T00:14:41;10.50;99.90
25192;DHT22;13143;50.924;5.320;2024-03-02T00:17:21;10.50;99.90
25192;DHT22;13143;50.924;5.320;2024-03-02T00:19:51;10.50;99.90
25192;DHT22;13143;50.924;5.320;2024-03-02T00:22:18;10.50;99.90
25192;DHT22;13143;50.924;5.320;2024-03-02T00:24:45;10.40;99.90
25192;DHT22;13143;50.924;5.320;2024-03-02T00:27:14;10.40;99.90
25192;DHT22;13143;50.924;5.320;2024-03-02T00:29:42;10.40;99.90
25192;DHT22;13143;50.924;5.320;2024-03-02T00:32:13;10.40;99.90
25192;DHT22;13143;50.924;5.320;2024-03-02T00:34:42;10.40;99.90
25192;DHT22;13143;50.924;5.320;2024-03-02T00:37:09;10.40;99.90
25192;DHT22;13143;50.924;5.320;2024-03-02T00:39:38;10.30;99.90
25192;DHT22;13143;50.924;5.320;2024-03-02T00:42:05;10.20;99.90
25192;DHT22;13143;50.924;5.320;2024-03-02T00:44:33;10.20;99.90
25192;DHT22;13143;50.924;5.320;2024-03-02T00:47:02;10.20;99.90
25192;DHT22;13143;50.924;5.320;2024-03-02T00:49:29;10.20;99.90
25192;DHT22;13143;50.924;5.320;2024-03-02T00:51:56;10.20;99.90
25192;DHT22;13143;50.924;5.320;2024-03-02T00:54:26;10.20;99.90
25192;DHT22;13143;50.924;5.320;2024-03-02T00:56:53;10.20;99.90
25192;DHT22;13143;50.924;5.320;2024-03-02T00:59:25;10.20;99.90
25192;DHT22;13143;50.924;5.320;2024-03-02T01:01:52;10.10;99.90
25192;DHT22;13143;50.924;5.320;2024-03-02T01:04:20;10.10;99.90
25192;DHT22;13143;50.924;5.320;2024-03-02T01:06:46;10.10;99.90
25192;DHT22;13143;50.924;5.320;2024-03-02T01:09:14;10.10;99.90
25192;DHT22;13143;50.924;5.320;2024-03-02T01:11:41;10.00;99.90
25192;DHT22;13143;50.924;5.320;2024-03-02T01:14:08;10.00;99.90
25192;DHT22;13143;50.924;5.320;2024-03-02T01:16:35;10.00;99.90
25192;DHT22;13143;50.924;5.320;2024-03-02T01:19:02;10.00;99.90
25192;DHT22;13143;50.924;5.320;2024-03-02T01:21:29;9.90;99.90
25192;DHT22;13143;50.924;5.320;2024-03-02T01:23:56;9.90;99.90
25192;DHT22;13143;50.924;5.320;2024-03-02T01:26:23;9.90;99.90
25192;DHT22;13143;50.924;5.320;2024-03-02T01:28:50;9.90;99.90
25192;DHT22;13143;50.924;5.320;2024-03-02T01:31:17;9.90;99.90
25192;DHT22;13143;50.924;5.320;2024-03-02T01:33:44;9.80;99.90
25192;DHT22;13143;50.924;5.320;2024-03-02T01:36:11;9.80;99.90
25192;DHT22;13143;50.924;5.320;2024-03-02T01:38:38;9.80;99.90
25192;DHT22;13143;50.924;5.320;2024-03-02T01:41:05;9.80;99.90
25192;DHT22;13143;50.924;5.320;2024-03-02T01:43:31;9.80;99.90
25192;DHT22;13143;50.924;5.320;2024-03-02T01:45:58;9.70;99.90
25192;DHT22;13143;50.924;5.320;2024-03-02T01:48:26;9.70;99.90
25192;DHT22;13143;50.924;5.320;2024-03-02T01:50:53;9.70;99.90
25192;DHT22;13143;50.924;5.320;2024-03-02T01:53:20;9.70;99.90
25192;DHT22;13143;50.924;5.320;2024-03-02T01:55:47;9.70;99.90
25192;DHT22;13143;50.924;5.320;2024-03-02T01:58:14;9.70;99.90
25192;DHT22;13143;50.924;5.320;2024-03-02T02:00:41;9.70;99.90
25192;DHT22;13143;50.924;5.320;2024-03-02T02:03:08;9.70;99.90
25192;DHT22;13143;50.924;5.320;2024-03-02T02:05:35;9.70;99.90
25192;DHT22;13143;50.924;5.320;2024-03-02T02:08:02;9.70;99.90
25192;DHT22;13143;50.924;5.320;2024-03-02T02:10:29;9.70;99.90
25192;DHT22;13143;50.924;5.320;2024-03-02T02:12:56;9.60;99.90
25192;DHT22;13143;50.924;5.320;2024-03-02T02:15:27;9.70;99.90
25192;DHT22;13143;50.924;5.320;2024-03-02T02:17:56;9.70;99.90
25192;DHT22;13143;50.924;5.320;2024-03-02T02:20:23;9.60;99.90
25192;DHT22;13143;50.924;5.320;2024-03-02T02:22:58;9.70;99.90
25192;DHT22;13143;50.924;5.320;2024-03-02T02:25:25;9.70;99.90
25192;DHT22;13143;50.924;5.320;2024-03-02T02:27:53;9.70;99.90
25192;DHT22;13143;50.924;5.320;2024-03-02T02:30:25;9.60;99.90
25192;DHT22;13143;50.924;5.320;2024-03-02T02:32:53;9.60;99.90
25192;DHT22;13143;50.924;5.320;2024-03-02T02:35:20;9.50;99.90
25192;DHT22;13143;50.924;5.320;2024-03-02T02:37:48;9.60;99.90
25192;DHT22;13143;50.924;5.320;2024-03-02T02:40:15;9.50;99.90
25192;DHT22;13143;50.924;5.320;2024-03-02T02:42:43;9.50;99.90
25192;DHT22;13143;50.924;5.320;2024-03-02T02:45:10;9.50;99.90
25192;DHT22;13143;50.924;5.320;2024-03-02T02:47:40;9.50;99.90
25192;DHT22;13143;50.924;5.320;2024-03-02T02:50:08;9.40;99.90
25192;DHT22;13143;50.924;5.320;2024-03-02T02:52:37;9.40;99.90
25192;DHT22;13143;50.924;5.320;2024-03-02T02:55:15;9.40;99.90
25192;DHT22;13143;50.924;5.320;2024-03-02T02:57:43;9.50;99.90
25192;DHT22;13143;50.924;5.320;2024-03-02T03:00:15;9.40;99.90
25192;DHT22;13143;50.924;5.320;2024-03-02T03:02:45;9.40;99.90
25192;DHT22;13143;50.924;5.320;2024-03-02T03:05:13;9.40;99.90
25192;DHT22;13143;50.924;5.320;2024-03-02T03:07:42;9.40;99.90
25192;DHT22;13143;50.924;5.320;2024-03-02T03:10:09;9.40;99.90
25192;DHT22;13143;50.924;5.320;2024-03-02T03:12:36;9.30;99.90
25192;DHT22;13143;50.924;5.320;2024-03-02T03:15:03;9.30;99.90
25192;DHT22;13143;50.924;5.320;2024-03-02T03:17:35;9.30;99.90
25192;DHT22;13143;50.924;5.320;2024-03-02T03:20:04;9.30;99.90
25192;DHT22;13143;50.924;5.320;2024-03-02T03:22:32;9.30;99.90
25192;DHT22;13143;50.924;5.320;2024-03-02T03:24:59;9.30;99.90
25192;DHT22;13143;50.924;5.320;2024-03-02T03:27:27;9.30;99.90
25192;DHT22;13143;50.924;5.320;2024-03-02T03:29:54;9.20;99.90
25192;DHT22;13143;50.924;5.320;2024-03-02T03:32:22;9.20;99.90
25192;DHT22;13143;50.924;5.320;2024-03-02T03:34:49;9.20;99.90
25192;DHT22;13143;50.924;5.320;2024-03-02T03:37:16;9.20;99.90
25192;DHT22;13143;50.924;5.320;2024-03-02T03:39:43;9.10;99.90
25192;DHT22;13143;50.924;5.320;2024-03-02T03:42:10;9.10;99.90
25192;DHT22;13143;50.924;5.320;2024-03-02T03:44:37;9.10;99.90
25192;DHT22;13143;50.924;5.320;2024-03-02T03:47:04;9.20;99.90
25192;DHT22;13143;50.924;5.320;2024-03-02T03:49:30;9.10;99.90
25192;DHT22;13143;50.924;5.320;2024-03-02T03:51:58;9.20;99.90
25192;DHT22;13143;50.924;5.320;2024-03-02T03:54:24;9.10;99.90
25192;DHT22;13143;50.924;5.320;2024-03-02T03:56:51;9.10;99.90
25192;DHT22;13143;50.924;5.320;2024-03-02T03:59:19;9.10;99.90
25192;DHT22;13143;50.924;5.320;2024-03-02T04:01:46;9.10;99.90
25192;DHT22;13143;50.924;5.320;2024-03-02T04:04:13;9.10;99.90
25192;DHT22;13143;50.924;5.320;2024-03-02T04:06:40;9.00;99.90
25192;DHT22;13143;50.924;5.320;2024-03-02T04:09:07;9.00;99.90
25192;DHT22;13143;50.924;5.320;2024-03-02T04:11:34;9.00;99.90
25192;DHT22;13143;50.924;5.320;2024-03-02T04:14:01;9.00;99.90
25192;DHT22;13143;50.924;5.320;2024-03-02T04:16:28;9.00;99.90
25192;DHT22;13143;50.924;5.320;2024-03-02T04:18:55;9.00;99.90
25192;DHT22;13143;50.924;5.320;2024-03-02T04:21:22;9.00;99.90
25192;DHT22;13143;50.924;5.320;2024-03-02T04:23:49;9.00;99.90
25192;DHT22;13143;50.924;5.320;2024-03-02T04:26:16;9.00;99.90
25192;DHT22;13143;50.924;5.320;2024-03-02T04:28:48;9.00;99.90
25192;DHT22;13143;50.924;5.320;2024-03-02T04:31:15;9.00;99.90
25192;DHT22;13143;50.924;5.320;2024-03-02T04:33:43;8.90;99.90
25192;DHT22;13143;50.924;5.320;2024-03-02T04:36:10;8.90;99.90
25192;DHT22;13143;50.924;5.320;2024-03-02T04:38:38;8.90;99.90
25192;DHT22;13143;50.924;5.320;2024-03-02T04:41:06;8.90;99.90
25192;DHT22;13143;50.924;5.320;2024-03-02T04:43:33;8.90;99.90
25192;DHT22;13143;50.924;5.320;2024-03-02T04:46:01;8.90;99.90
25192;DHT22;13143;50.924;5.320;2024-03-02T04:48:28;8.90;99.90
25192;DHT22;13143;50.924;5.320;2024-03-02T04:50:55;8.90;99.90
25192;DHT22;13143;50.924;5.320;2024-03-02T04:53:22;8.90;99.90
25192;DHT22;13143;50.924;5.320;2024-03-02T04:55:49;8.90;99.90
25192;DHT22;13143;50.924;5.320;2024-03-02T04:58:22;8.80;99.90
25192;DHT22;13143;50.924;5.320;2024-03-02T05:00:49;8.90;99.90
25192;DHT22;13143;50.924;5.320;2024-03-02T05:03:16;8.90;99.90
25192;DHT22;13143;50.924;5.320;2024-03-02T05:05:43;8.80;99.90
25192;DHT22;13143;50.924;5.320;2024-03-02T05:08:11;8.80;99.90
25192;DHT22;13143;50.924;5.320;2024-03-02T05:10:39;8.80;99.90
25192;DHT22;13143;50.924;5.320;2024-03-02T05:13:05;8.80;99.90
25192;DHT22;13143;50.924;5.320;2024-03-02T05:15:32;8.80;99.90
25192;DHT22;13143;50.924;5.320;2024-03-02T05:17:59;8.80;99.90
25192;DHT22;13143;50.924;5.320;2024-03-02T05:20:29;8.80;99.90
25192;DHT22;13143;50.924;5.320;2024-03-02T05:22:56;8.70;99.90
25192;DHT22;13143;50.924;5.320;2024-03-02T05:25:23;8.70;99.90
25192;DHT22;13143;50.924;5.320;2024-03-02T05:27:50;8.70;99.90
25192;DHT22;13143;50.924;5.320;2024-03-02T05:30:17;8.70;99.90
25192;DHT22;13143;50.924;5.320;2024-03-02T05:32:44;8.70;99.90
25192;DHT22;13143;50.924;5.320;2024-03-02T05:35:10;8.70;99.90
25192;DHT22;13143;50.924;5.320;2024-03-02T05:37:39;8.70;99.90
25192;DHT22;13143;50.924;5.320;2024-03-02T05:40:07;8.70;99.90
25192;DHT22;13143;50.924;5.320;2024-03-02T05:42:34;8.60;99.90
25192;DHT22;13143;50.924;5.320;2024-03-02T05:45:01;8.60;99.90
25192;DHT22;13143;50.924;5.320;2024-03-02T05:47:28;8.60;99.90
25192;DHT22;13143;50.924;5.320;2024-03-02T05:49:55;8.60;99.90
25192;DHT22;13143;50.924;5.320;2024-03-02T05:52:22;8.60;99.90
25192;DHT22;13143;50.924;5.320;2024-03-02T05:54:49;8.60;99.90
25192;DHT22;13143;50.924;5.320;2024-03-02T05:57:16;8.60;99.90
25192;DHT22;13143;50.924;5.320;2024-03-02T05:59:48;8.50;99.90
25192;DHT22;13143;50.924;5.320;2024-03-02T06:02:15;8.50;99.90
25192;DHT22;13143;50.924;5.320;2024-03-02T06:04:42;8.50;99.90
25192;DHT22;13143;50.924;5.320;2024-03-02T06:07:09;8.50;99.90
25192;DHT22;13143;50.924;5.320;2024-03-02T06:09:36;8.50;99.90
25192;DHT22;13143;50.924;5.320;2024-03-02T06:12:04;8.50;99.90
25192;DHT22;13143;50.924;5.320;2024-03-02T06:14:31;8.40;99.90
25192;DHT22;13143;50.924;5.320;2024-03-02T06:16:58;8.40;99.90
25192;DHT22;13143;50.924;5.320;2024-03-02T06:19:26;8.40;99.90
25192;DHT22;13143;50.924;5.320;2024-03-02T06:21:54;8.50;99.90
25192;DHT22;13143;50.924;5.320;2024-03-02T06:24:21;8.40;99.90
25192;DHT22;13143;50.924;5.320;2024-03-02T06:26:48;8.40;99.90
25192;DHT22;13143;50.924;5.320;2024-03-02T06:29:15;8.40;99.90
25192;DHT22;13143;50.924;5.320;2024-03-02T06:31:42;8.40;99.90
25192;DHT22;13143;50.924;5.320;2024-03-02T06:34:09;8.40;99.90
25192;DHT22;13143;50.924;5.320;2024-03-02T06:36:36;8.40;99.90
25192;DHT22;13143;50.924;5.320;2024-03-02T06:39:03;8.40;99.90
25192;DHT22;13143;50.924;5.320;2024-03-02T06:41:30;8.40;99.90
25192;DHT22;13143;50.924;5.320;2024-03-02T06:43:57;8.40;99.90
25192;DHT22;13143;50.924;5.320;2024-03-02T06:46:27;8.40;99.90
25192;DHT22;13143;50.924;5.320;2024-03-02T06:48:54;8.40;99.90
25192;DHT22;13143;50.924;5.320;2024-03-02T06:51:21;8.40;99.90
25192;DHT22;13143;50.924;5.320;2024-03-02T06:53:48;8.40;99.90
25192;DHT22;13143;50.924;5.320;2024-03-02T06:56:15;8.40;99.90
25192;DHT22;13143;50.924;5.320;2024-03-02T06:58:42;8.30;99.90
25192;DHT22;13143;50.924;5.320;2024-03-02T07:01:09;8.30;99.90
25192;DHT22;13143;50.924;5.320;2024-03-02T07:03:36;8.30;99.90
25192;DHT22;13143;50.924;5.320;2024-03-02T07:06:06;8.30;99.90
25192;DHT22;13143;50.924;5.320;2024-03-02T07:08:33;8.30;99.90
25192;DHT22;13143;50.924;5.320;2024-03-02T07:11:00;8.30;99.90
25192;DHT22;13143;50.924;5.320;2024-03-02T07:13:27;8.30;99.90
25192;DHT22;13143;50.924;5.320;2024-03-02T07:15:54;8.30;99.90
25192;DHT22;13143;50.924;5.320;2024-03-02T07:18:31;8.30;99.90
25192;DHT22;13143;50.924;5.320;2024-03-02T07:20:58;8.30;99.90
25192;DHT22;13143;50.924;5.320;2024-03-02T07:23:27;8.30;99.90
25192;DHT22;13143;50.924;5.320;2024-03-02T07:25:54;8.40;99.90
25192;DHT22;13143;50.924;5.320;2024-03-02T07:28:26;8.30;99.90
25192;DHT22;13143;50.924;5.320;2024-03-02T07:31:03;8.30;99.90
25192;DHT22;13143;50.924;5.320;2024-03-02T07:33:31;8.30;99.90
25192;DHT22;13143;50.924;5.320;2024-03-02T07:35:59;8.30;99.90
25192;DHT22;13143;50.924;5.320;2024-03-02T07:38:31;8.40;99.90
25192;DHT22;13143;50.924;5.320;2024-03-02T07:40:58;8.30;99.90
25192;DHT22;13143;50.924;5.320;2024-03-02T07:43:25;8.40;99.90
25192;DHT22;13143;50.924;5.320;2024-03-02T07:45:52;8.40;99.90
25192;DHT22;13143;50.924;5.320;2024-03-02T07:48:19;8.40;99.90
25192;DHT22;13143;50.924;5.320;2024-03-02T07:50:46;8.40;99.90
25192;DHT22;13143;50.924;5.320;2024-03-02T07:53:14;8.40;99.90
25192;DHT22;13143;50.924;5.320;2024-03-02T07:55:41;8.40;99.90
25192;DHT22;13143;50.924;5.320;2024-03-02T07:58:08;8.40;99.90
25192;DHT22;13143;50.924;5.320;2024-03-02T08:00:35;8.40;99.90
25192;DHT22;13143;50.924;5.320;2024-03-02T08:03:03;8.40;99.90
25192;DHT22;13143;50.924;5.320;2024-03-02T08:05:30;8.40;99.90
25192;DHT22;13143;50.924;5.320;2024-03-02T08:07:57;8.50;99.90
25192;DHT22;13143;50.924;5.320;2024-03-02T08:10:24;8.50;99.90
25192;DHT22;13143;50.924;5.320;2024-03-02T08:12:51;8.50;99.90
25192;DHT22;13143;50.924;5.320;2024-03-02T08:15:18;8.50;99.90
25192;DHT22;13143;50.924;5.320;2024-03-02T08:17:45;8.50;99.90
25192;DHT22;13143;50.924;5.320;2024-03-02T08:20:16;8.60;99.90
25192;DHT22;13143;50.924;5.320;2024-03-02T08:22:43;8.60;99.90
25192;DHT22;13143;50.924;5.320;2024-03-02T08:25:10;8.60;99.90
25192;DHT22;13143;50.924;5.320;2024-03-02T08:27:39;8.60;99.90
25192;DHT22;13143;50.924;5.320;2024-03-02T08:30:07;8.60;99.90
25192;DHT22;13143;50.924;5.320;2024-03-02T08:32:35;8.60;99.90
25192;DHT22;13143;50.924;5.320;2024-03-02T08:35:02;8.70;99.90
25192;DHT22;13143;50.924;5.320;2024-03-02T08:37:29;8.70;99.90
25192;DHT22;13143;50.924;5.320;2024-03-02T08:39:56;8.80;99.90
25192;DHT22;13143;50.924;5.320;2024-03-02T08:42:23;8.70;99.90
25192;DHT22;13143;50.924;5.320;2024-03-02T08:44:51;8.80;99.90
25192;DHT22;13143;50.924;5.320;2024-03-02T08:47:18;8.80;99.90
25192;DHT22;13143;50.924;5.320;2024-03-02T08:49:45;8.80;99.90
25192;DHT22;13143;50.924;5.320;2024-03-02T08:52:12;8.90;99.90
25192;DHT22;13143;50.924;5.320;2024-03-02T08:54:39;8.90;99.90
25192;DHT22;13143;50.924;5.320;2024-03-02T08:57:06;8.90;99.90
25192;DHT22;13143;50.924;5.320;2024-03-02T08:59:34;8.90;99.90
25192;DHT22;13143;50.924;5.320;2024-03-02T09:02:01;8.90;99.90
25192;DHT22;13143;50.924;5.320;2024-03-02T09:04:28;8.90;99.90
25192;DHT22;13143;50.924;5.320;2024-03-02T09:07:00;9.00;99.90
25192;DHT22;13143;50.924;5.320;2024-03-02T09:09:28;9.00;99.90
25192;DHT22;13143;50.924;5.320;2024-03-02T09:11:55;9.00;99.90
25192;DHT22;13143;50.924;5.320;2024-03-02T09:14:24;9.00;99.90
25192;DHT22;13143;50.924;5.320;2024-03-02T09:16:52;9.10;99.90
25192;DHT22;13143;50.924;5.320;2024-03-02T09:19:18;9.10;99.90
25192;DHT22;13143;50.924;5.320;2024-03-02T09:21:45;9.10;99.90
25192;DHT22;13143;50.924;5.320;2024-03-02T09:24:12;9.20;99.90
25192;DHT22;13143;50.924;5.320;2024-03-02T09:26:43;9.20;99.90
25192;DHT22;13143;50.924;5.320;2024-03-02T09:29:10;9.20;99.90
25192;DHT22;13143;50.924;5.320;2024-03-02T09:31:41;9.20;99.90
25192;DHT22;13143;50.924;5.320;2024-03-02T09:34:08;9.20;99.90
25192;DHT22;13143;50.924;5.320;2024-03-02T09:36:35;9.30;99.90
25192;DHT22;13143;50.924;5.320;2024-03-02T09:39:03;9.20;99.90
25192;DHT22;13143;50.924;5.320;2024-03-02T09:41:32;9.30;99.90
25192;DHT22;13143;50.924;5.320;2024-03-02T09:44:00;9.30;99.90
25192;DHT22;13143;50.924;5.320;2024-03-02T09:46:27;9.30;99.90
25192;DHT22;13143;50.924;5.320;2024-03-02T09:48:54;9.30;99.90
25192;DHT22;13143;50.924;5.320;2024-03-02T09:51:21;9.40;99.90
25192;DHT22;13143;50.924;5.320;2024-03-02T09:53:49;9.40;99.90
25192;DHT22;13143;50.924;5.320;2024-03-02T09:56:16;9.50;99.90
25192;DHT22;13143;50.924;5.320;2024-03-02T09:58:45;9.50;99.90
25192;DHT22;13143;50.924;5.320;2024-03-02T10:01:12;9.50;99.90
25192;DHT22;13143;50.924;5.320;2024-03-02T10:03:39;9.60;99.90
25192;DHT22;13143;50.924;5.320;2024-03-02T10:06:26;9.60;99.90
25192;DHT22;13143;50.924;5.320;2024-03-02T10:08:53;9.50;99.90
25192;DHT22;13143;50.924;5.320;2024-03-02T10:11:32;9.60;99.90
25192;DHT22;13143;50.924;5.320;2024-03-02T10:14:11;9.60;99.90
25192;DHT22;13143;50.924;5.320;2024-03-02T10:16:43;9.60;99.90
25192;DHT22;13143;50.924;5.320;2024-03-02T10:19:22;9.60;99.90
25192;DHT22;13143;50.924;5.320;2024-03-02T10:21:51;9.70;99.90
25192;DHT22;13143;50.924;5.320;2024-03-02T10:24:19;9.70;99.90
25192;DHT22;13143;50.924;5.320;2024-03-02T10:26:47;9.70;99.90
25192;DHT22;13143;50.924;5.320;2024-03-02T10:29:14;9.80;99.90
25192;DHT22;13143;50.924;5.320;2024-03-02T10:31:45;9.80;99.90
25192;DHT22;13143;50.924;5.320;2024-03-02T10:34:15;9.90;99.90
25192;DHT22;13143;50.924;5.320;2024-03-02T10:36:45;9.90;99.90
25192;DHT22;13143;50.924;5.320;2024-03-02T10:39:13;9.90;99.90
25192;DHT22;13143;50.924;5.320;2024-03-02T10:41:41;10.00;99.90
25192;DHT22;13143;50.924;5.320;2024-03-02T10:44:09;10.00;99.90
25192;DHT22;13143;50.924;5.320;2024-03-02T10:46:37;10.00;99.90
25192;DHT22;13143;50.924;5.320;2024-03-02T10:49:05;10.10;99.90
25192;DHT22;13143;50.924;5.320;2024-03-02T10:51:35;10.10;99.90
25192;DHT22;13143;50.924;5.320;2024-03-02T10:54:04;10.10;99.90
25192;DHT22;13143;50.924;5.320;2024-03-02T10:56:39;10.10;99.90
25192;DHT22;13143;50.924;5.320;2024-03-02T11:01:47;10.30;99.90
25192;DHT22;13143;50.924;5.320;2024-03-02T11:04:18;10.30;99.90
25192;DHT22;13143;50.924;5.320;2024-03-02T11:06:48;10.30;99.90
25192;DHT22;13143;50.924;5.320;2024-03-02T11:09:19;10.40;99.90
25192;DHT22;13143;50.924;5.320;2024-03-02T11:11:50;10.40;99.90
25192;DHT22;13143;50.924;5.320;2024-03-02T11:14:24;10.40;99.90
25192;DHT22;13143;50.924;5.320;2024-03-02T11:16:52;10.50;99.90
25192;DHT22;13143;50.924;5.320;2024-03-02T11:19:20;10.50;99.90
25192;DHT22;13143;50.924;5.320;2024-03-02T11:21:48;10.50;99.90
25192;DHT22;13143;50.924;5.320;2024-03-02T11:26:49;10.60;99.90
25192;DHT22;13143;50.924;5.320;2024-03-02T11:32:04;10.70;99.90
25192;DHT22;13143;50.924;5.320;2024-03-02T11:34:32;10.70;99.90
25192;DHT22;13143;50.924;5.320;2024-03-02T11:37:03;10.80;99.90
25192;DHT22;13143;50.924;5.320;2024-03-02T11:39:31;10.80;99.90
25192;DHT22;13143;50.924;5.320;2024-03-02T11:41:58;10.90;99.90
25192;DHT22;13143;50.924;5.320;2024-03-02T11:44:27;10.90;99.90
25192;DHT22;13143;50.924;5.320;2024-03-02T11:47:02;10.90;99.90
25192;DHT22;13143;50.924;5.320;2024-03-02T11:49:39;11.00;99.90
25192;DHT22;13143;50.924;5.320;2024-03-02T11:52:09;11.00;99.90
25192;DHT22;13143;50.924;5.320;2024-03-02T11:54:39;11.00;99.90
25192;DHT22;13143;50.924;5.320;2024-03-02T11:57:07;11.10;99.90
25192;DHT22;13143;50.924;5.320;2024-03-02T11:59:34;11.00;99.90
25192;DHT22;13143;50.924;5.320;2024-03-02T12:02:02;11.10;99.90
25192;DHT22;13143;50.924;5.320;2024-03-02T12:04:29;11.10;99.90
25192;DHT22;13143;50.924;5.320;2024-03-02T12:07:01;11.20;99.90
25192;DHT22;13143;50.924;5.320;2024-03-02T12:09:29;11.20;99.90
25192;DHT22;13143;50.924;5.320;2024-03-02T12:14:30;11.30;99.90
25192;DHT22;13143;50.924;5.320;2024-03-02T12:16:57;11.40;99.90
25192;DHT22;13143;50.924;5.320;2024-03-02T12:19:29;11.40;99.90
25192;DHT22;13143;50.924;5.320;2024-03-02T12:21:57;11.40;99.90
25192;DHT22;13143;50.924;5.320;2024-03-02T12:24:27;11.50;99.90
25192;DHT22;13143;50.924;5.320;2024-03-02T12:26:54;11.50;99.90
25192;DHT22;13143;50.924;5.320;2024-03-02T12:29:22;11.60;99.90
25192;DHT22;13143;50.924;5.320;2024-03-02T12:31:49;11.60;99.90
25192;DHT22;13143;50.924;5.320;2024-03-02T12:34:17;11.60;99.90
25192;DHT22;13143;50.924;5.320;2024-03-02T12:36:46;11.60;99.90
25192;DHT22;13143;50.924;5.320;2024-03-02T12:39:19;11.70;99.90
25192;DHT22;13143;50.924;5.320;2024-03-02T12:41:47;11.80;99.90
25192;DHT22;13143;50.924;5.320;2024-03-02T12:44:14;11.80;99.90
25192;DHT22;13143;50.924;5.320;2024-03-02T12:46:41;11.80;99.90
25192;DHT22;13143;50.924;5.320;2024-03-02T12:49:10;11.90;99.90
25192;DHT22;13143;50.924;5.320;2024-03-02T12:51:41;11.90;99.90
25192;DHT22;13143;50.924;5.320;2024-03-02T12:54:09;12.00;99.90
25192;DHT22;13143;50.924;5.320;2024-03-02T12:56:37;12.00;99.90
25192;DHT22;13143;50.924;5.320;2024-03-02T12:59:05;12.10;99.90
25192;DHT22;13143;50.924;5.320;2024-03-02T13:01:31;12.00;99.90
25192;DHT22;13143;50.924;5.320;2024-03-02T13:03:59;12.10;99.90
25192;DHT22;13143;50.924;5.320;2024-03-02T13:06:26;12.10;99.90
25192;DHT22;13143;50.924;5.320;2024-03-02T13:08:56;12.20;99.90
25192;DHT22;13143;50.924;5.320;2024-03-02T13:11:23;12.20;99.90
25192;DHT22;13143;50.924;5.320;2024-03-02T13:13:51;12.20;99.90
25192;DHT22;13143;50.924;5.320;2024-03-02T13:16:18;12.30;99.90
25192;DHT22;13143;50.924;5.320;2024-03-02T13:18:56;12.30;99.90
25192;DHT22;13143;50.924;5.320;2024-03-02T13:21:23;12.30;99.90
25192;DHT22;13143;50.924;5.320;2024-03-02T13:23:50;12.40;99.90
25192;DHT22;13143;50.924;5.320;2024-03-02T13:26:17;12.40;99.90
25192;DHT22;13143;50.924;5.320;2024-03-02T13:28:44;12.40;99.90
25192;DHT22;13143;50.924;5.320;2024-03-02T13:31:11;12.50;99.90
25192;DHT22;13143;50.924;5.320;2024-03-02T13:33:39;12.40;99.90
25192;DHT22;13143;50.924;5.320;2024-03-02T13:36:06;12.40;99.90
25192;DHT22;13143;50.924;5.320;2024-03-02T13:38:33;12.50;99.90
25192;DHT22;13143;50.924;5.320;2024-03-02T13:41:00;12.50;99.90
25192;DHT22;13143;50.924;5.320;2024-03-02T13:43:28;12.60;99.90
25192;DHT22;13143;50.924;5.320;2024-03-02T13:45:58;12.60;99.90
25192;DHT22;13143;50.924;5.320;2024-03-02T13:48:25;12.60;99.90
25192;DHT22;13143;50.924;5.320;2024-03-02T13:50:52;12.70;99.90
25192;DHT22;13143;50.924;5.320;2024-03-02T13:53:20;12.80;99.90
25192;DHT22;13143;50.924;5.320;2024-03-02T13:55:47;12.70;99.90
25192;DHT22;13143;50.924;5.320;2024-03-02T13:58:14;12.80;99.90
25192;DHT22;13143;50.924;5.320;2024-03-02T14:00:41;12.90;99.90
25192;DHT22;13143;50.924;5.320;2024-03-02T14:03:09;12.80;99.90
25192;DHT22;13143;50.924;5.320;2024-03-02T14:05:36;12.90;99.90
25192;DHT22;13143;50.924;5.320;2024-03-02T14:08:03;12.90;99.90
25192;DHT22;13143;50.924;5.320;2024-03-02T14:10:30;12.90;99.90
25192;DHT22;13143;50.924;5.320;2024-03-02T14:12:57;13.00;99.90
25192;DHT22;13143;50.924;5.320;2024-03-02T14:15:24;13.00;99.90
25192;DHT22;13143;50.924;5.320;2024-03-02T14:17:51;13.00;99.90
25192;DHT22;13143;50.924;5.320;2024-03-02T14:20:18;13.00;99.90
25192;DHT22;13143;50.924;5.320;2024-03-02T14:22:49;13.10;99.90
25192;DHT22;13143;50.924;5.320;2024-03-02T14:25:17;13.10;99.90
25192;DHT22;13143;50.924;5.320;2024-03-02T14:27:44;13.10;99.90
25192;DHT22;13143;50.924;5.320;2024-03-02T14:30:15;13.10;99.90
25192;DHT22;13143;50.924;5.320;2024-03-02T14:32:42;13.10;99.90
25192;DHT22;13143;50.924;5.320;2024-03-02T14:35:09;13.20;99.90
25192;DHT22;13143;50.924;5.320;2024-03-02T14:37:37;13.20;99.90
25192;DHT22;13143;50.924;5.320;2024-03-02T14:40:04;13.20;99.90
25192;DHT22;13143;50.924;5.320;2024-03-02T14:42:33;13.30;99.90
25192;DHT22;13143;50.924;5.320;2024-03-02T14:45:00;13.30;99.90
25192;DHT22;13143;50.924;5.320;2024-03-02T14:47:31;13.20;99.90
25192;DHT22;13143;50.924;5.320;2024-03-02T14:49:58;13.20;99.90
25192;DHT22;13143;50.924;5.320;2024-03-02T14:52:25;13.30;99.90
25192;DHT22;13143;50.924;5.320;2024-03-02T14:54:52;13.30;99.90
25192;DHT22;13143;50.924;5.320;2024-03-02T14:57:19;13.30;99.90
25192;DHT22;13143;50.924;5.320;2024-03-02T14:59:46;13.20;99.90
25192;DHT22;13143;50.924;5.320;2024-03-02T15:02:13;13.30;99.90
25192;DHT22;13143;50.924;5.320;2024-03-02T15:04:39;13.30;99.90
25192;DHT22;13143;50.924;5.320;2024-03-02T15:07:06;13.40;99.90
25192;DHT22;13143;50.924;5.320;2024-03-02T15:09:33;13.40;99.90
25192;DHT22;13143;50.924;5.320;2024-03-02T15:12:02;13.40;99.90
25192;DHT22;13143;50.924;5.320;2024-03-02T15:14:30;13.40;99.90
25192;DHT22;13143;50.924;5.320;2024-03-02T15:16:57;13.40;99.90
25192;DHT22;13143;50.924;5.320;2024-03-02T15:19:24;13.40;99.90
25192;DHT22;13143;50.924;5.320;2024-03-02T15:21:51;13.30;99.90
25192;DHT22;13143;50.924;5.320;2024-03-02T15:24:18;13.30;99.90
25192;DHT22;13143;50.924;5.320;2024-03-02T15:26:45;13.30;99.90
25192;DHT22;13143;50.924;5.320;2024-03-02T15:29:12;13.30;99.90
25192;DHT22;13143;50.924;5.320;2024-03-02T15:31:39;13.30;99.90
25192;DHT22;13143;50.924;5.320;2024-03-02T15:34:06;13.40;99.90
25192;DHT22;13143;50.924;5.320;2024-03-02T15:36:34;13.30;99.90
25192;DHT22;13143;50.924;5.320;2024-03-02T15:39:02;13.40;99.90
25192;DHT22;13143;50.924;5.320;2024-03-02T15:41:31;13.40;99.90
25192;DHT22;13143;50.924;5.320;2024-03-02T15:43:58;13.30;99.90
25192;DHT22;13143;50.924;5.320;2024-03-02T15:46:26;13.40;99.90
25192;DHT22;13143;50.924;5.320;2024-03-02T15:48:53;13.40;99.90
25192;DHT22;13143;50.924;5.320;2024-03-02T15:51:20;13.40;99.90
25192;DHT22;13143;50.924;5.320;2024-03-02T15:53:47;13.40;99.90
25192;DHT22;13143;50.924;5.320;2024-03-02T15:56:14;13.40;99.90